Time;durP1;ratioP1;P1;durP2;ratioP2;P2;SDS_P1;SDS_P2;PMS_P1;PMS_P2;Temp;Humidity;BMP_temperature;BMP_pressure;BME280_temperature;BME280_humidity;BME280_pressure;Samples;Min_cycle;Max_cycle;Signal;HPM_P1;HPM_P2
2022/01/14 00:02:19;;;;;;;49.85;21.42;;;4.60;62.70;;;;;;4971335;28;20650;-56
2022/01/14 00:04:45;;;;;;;52.38;22.92;;;4.60;62.70;;;;;;4980464;28;20052;-53
2022/01/14 00:07:11;;;;;;;44.83;20.88;;;4.70;62.80;;;;;;4977067;28;20045;-56
2022/01/14 00:09:39;;;;;;;47.45;21.77;;;4.60;62.80;;;;;;4976903;28;20042;-56
2022/01/14 00:12:17;;;;;;;46.45;21.60;;;4.60;62.90;;;;;;4980573;28;20041;-55
2022/01/14 00:14:59;;;;;;;47.42;20.08;;;4.60;62.90;;;;;;4977942;28;20038;-54
2022/01/14 00:17:25;;;;;;;41.25;19.42;;;4.60;62.90;;;;;;4974402;28;20046;-56
2022/01/14 00:19:51;;;;;;;47.00;21.52;;;4.60;62.90;;;;;;4974060;28;20034;-56
2022/01/14 00:22:18;;;;;;;43.55;21.25;;;4.60;63.00;;;;;;4980738;28;20031;-55
2022/01/14 00:35:30;;;;;;;40.83;20.73;;;4.60;63.00;;;;;;4980442;28;20030;-56
2022/01/14 00:37:57;;;;;;;45.22;19.75;;;4.60;63.00;;;;;;4970983;28;20527;-57
2022/01/14 00:40:23;;;;;;;45.25;20.17;;;4.50;63.00;;;;;;4979370;28;20031;-55
2022/01/14 00:42:51;;;;;;;41.30;19.50;;;4.50;63.10;;;;;;4977833;28;20030;-57
2022/01/14 00:45:18;;;;;;;48.20;20.20;;;4.50;63.10;;;;;;4975593;28;20038;-55
2022/01/14 00:47:45;;;;;;;43.22;20.00;;;4.50;63.10;;;;;;4974329;28;20041;-55
2022/01/14 00:50:13;;;;;;;42.78;20.40;;;4.50;63.10;;;;;;4977682;28;20034;-55
2022/01/14 00:52:41;;;;;;;41.70;20.40;;;4.50;63.10;;;;;;4976450;28;20034;-55
2022/01/14 00:55:12;;;;;;;44.33;19.80;;;4.50;63.10;;;;;;4978278;28;20049;-58
2022/01/14 01:00:34;;;;;;;44.42;20.52;;;4.40;63.00;;;;;;4983375;28;20030;-58
2022/01/14 01:03:01;;;;;;;43.20;20.45;;;4.50;63.00;;;;;;4977788;28;20026;-57
2022/01/14 01:05:28;;;;;;;43.53;19.95;;;4.40;62.90;;;;;;4979493;28;20023;-55
2022/01/14 01:08:05;;;;;;;45.38;20.52;;;4.50;63.00;;;;;;4976470;28;20014;-58
2022/01/14 01:10:32;;;;;;;41.92;19.77;;;4.40;63.00;;;;;;4978587;28;20030;-55
2022/01/14 01:13:10;;;;;;;47.70;20.92;;;4.40;63.00;;;;;;4978400;28;20034;-56
2022/01/14 01:15:36;;;;;;;41.13;19.08;;;4.40;63.10;;;;;;4977247;28;20061;-55
2022/01/14 01:18:02;;;;;;;43.53;19.73;;;4.40;63.10;;;;;;4957501;28;20039;-53
2022/01/14 01:20:29;;;;;;;42.00;21.02;;;4.40;63.10;;;;;;4962873;28;20041;-56
2022/01/14 01:22:55;;;;;;;44.53;20.15;;;4.40;63.10;;;;;;4979561;28;20054;-58
2022/01/14 01:25:25;;;;;;;45.15;19.40;;;4.40;63.10;;;;;;4982020;28;20030;-54
2022/01/14 01:27:54;;;;;;;38.28;19.15;;;4.40;63.10;;;;;;4975896;28;20469;-54
2022/01/14 01:33:01;;;;;;;45.47;20.70;;;4.40;63.00;;;;;;4982478;28;20029;-58
2022/01/14 01:35:28;;;;;;;47.40;19.10;;;4.40;63.00;;;;;;4982825;28;20030;-56
2022/01/14 01:37:55;;;;;;;41.95;19.48;;;4.30;62.90;;;;;;4975400;28;20495;-56
2022/01/14 01:40:22;;;;;;;43.88;19.25;;;4.30;62.90;;;;;;4981628;28;20030;-55
2022/01/14 01:42:50;;;;;;;43.28;18.55;;;4.30;62.90;;;;;;4981357;28;20511;-56
2022/01/14 01:45:23;;;;;;;36.20;17.88;;;4.30;62.90;;;;;;4980368;28;20394;-56
2022/01/14 01:47:52;;;;;;;42.33;18.75;;;4.30;63.00;;;;;;4960240;28;20034;-56
2022/01/14 01:50:22;;;;;;;37.38;17.73;;;4.30;63.00;;;;;;4977500;28;20124;-56
2022/01/14 01:52:48;;;;;;;39.58;18.65;;;4.30;63.00;;;;;;4983301;28;20030;-54
2022/01/14 01:55:14;;;;;;;38.08;18.17;;;4.30;63.00;;;;;;4981762;28;20022;-55
2022/01/14 01:57:42;;;;;;;40.08;18.75;;;4.30;63.00;;;;;;4976263;28;20023;-56
2022/01/14 02:00:18;;;;;;;38.58;18.63;;;4.30;63.10;;;;;;4979794;28;20392;-54
2022/01/14 02:02:48;;;;;;;34.88;17.65;;;4.30;63.00;;;;;;4980867;28;20039;-54
2022/01/14 02:05:15;;;;;;;41.22;19.13;;;4.30;63.00;;;;;;4979938;28;20023;-56
2022/01/14 02:07:41;;;;;;;40.30;18.77;;;4.30;63.00;;;;;;4978107;28;20042;-55
2022/01/14 02:10:08;;;;;;;40.25;18.63;;;4.30;63.00;;;;;;4978518;28;20023;-58
2022/01/14 02:12:38;;;;;;;38.35;18.02;;;4.30;63.00;;;;;;4981936;28;20041;-58
2022/01/14 02:15:10;;;;;;;37.75;18.42;;;4.20;62.90;;;;;;4979321;28;20372;-55
2022/01/14 02:18:03;;;;;;;32.75;16.63;;;4.20;62.90;;;;;;4977435;28;20042;-58
2022/01/14 02:23:16;;;;;;;37.13;17.52;;;4.20;63.00;;;;;;4980308;28;20049;-54
2022/01/14 02:25:44;;;;;;;36.50;17.55;;;4.20;63.00;;;;;;4979801;28;20046;-56
2022/01/14 02:28:13;;;;;;;34.45;16.25;;;4.20;63.00;;;;;;4975725;28;20065;-55
2022/01/14 02:30:42;;;;;;;33.55;16.08;;;4.20;63.10;;;;;;4980554;28;20022;-54
2022/01/14 02:33:10;;;;;;;35.15;16.70;;;4.20;63.10;;;;;;4978571;28;20053;-55
2022/01/14 02:35:39;;;;;;;32.72;16.67;;;4.20;63.10;;;;;;4980602;28;20034;-58
2022/01/14 02:38:07;;;;;;;30.13;14.75;;;4.10;63.10;;;;;;4954851;28;20077;-55
2022/01/14 02:40:33;;;;;;;34.13;15.80;;;4.10;63.20;;;;;;4979935;28;20461;-51
2022/01/14 02:43:01;;;;;;;31.75;16.55;;;4.20;63.20;;;;;;4978184;28;20525;-52
2022/01/14 02:45:31;;;;;;;31.98;15.65;;;4.10;63.10;;;;;;4979476;28;20043;-56
2022/01/14 02:47:58;;;;;;;35.90;16.27;;;4.20;63.10;;;;;;4957078;28;20487;-57
2022/01/14 02:50:25;;;;;;;30.17;15.35;;;4.10;63.00;;;;;;4979364;28;20038;-55
2022/01/14 02:55:21;;;;;;;34.22;15.50;;;4.10;62.90;;;;;;4980412;28;20034;-56
2022/01/14 02:57:54;;;;;;;31.48;15.60;;;4.10;62.90;;;;;;4975770;28;20030;-55
2022/01/14 03:00:26;;;;;;;28.05;15.05;;;4.10;62.90;;;;;;4977779;28;20030;-53
2022/01/14 03:02:52;;;;;;;28.65;15.52;;;4.10;62.80;;;;;;4977173;28;20045;-55
2022/01/14 03:05:20;;;;;;;31.00;15.60;;;4.10;62.70;;;;;;4981276;28;20026;-57
2022/01/14 03:07:47;;;;;;;26.40;13.00;;;4.10;62.70;;;;;;4971287;28;20479;-58
2022/01/14 03:10:16;;;;;;;28.42;13.63;;;4.00;62.60;;;;;;4981948;28;20043;-56
2022/01/14 03:12:43;;;;;;;23.35;12.30;;;4.00;62.70;;;;;;4978667;28;20023;-57
2022/01/14 03:15:11;;;;;;;29.48;13.98;;;4.00;62.80;;;;;;4980057;28;20092;-57
2022/01/14 03:17:37;;;;;;;26.15;12.82;;;4.00;62.80;;;;;;4974923;28;20038;-55
2022/01/14 03:20:06;;;;;;;25.35;14.00;;;4.00;62.80;;;;;;4979771;28;20033;-56
2022/01/14 03:22:36;;;;;;;26.30;14.18;;;4.00;62.90;;;;;;4977765;28;20058;-56
2022/01/14 03:27:49;;;;;;;27.48;13.10;;;4.00;62.80;;;;;;4976275;28;20486;-56
2022/01/14 03:30:16;;;;;;;26.83;13.05;;;4.00;62.90;;;;;;4979722;28;20394;-57
2022/01/14 03:32:43;;;;;;;29.95;13.93;;;4.00;62.80;;;;;;4976570;28;20041;-56
2022/01/14 03:35:10;;;;;;;25.52;13.45;;;4.00;62.80;;;;;;4980255;28;20034;-57
2022/01/14 03:37:37;;;;;;;23.83;12.25;;;3.90;62.70;;;;;;4975619;28;20061;-58
2022/01/14 03:40:05;;;;;;;27.50;13.73;;;3.90;62.70;;;;;;4979348;28;20049;-56
2022/01/14 03:42:31;;;;;;;27.67;14.35;;;3.90;62.80;;;;;;4972798;28;20038;-56
2022/01/14 03:44:58;;;;;;;28.27;14.05;;;3.90;62.80;;;;;;4977548;28;20042;-58
2022/01/14 03:47:24;;;;;;;28.90;14.35;;;3.90;62.70;;;;;;4971943;28;20391;-56
2022/01/14 03:49:51;;;;;;;29.27;14.43;;;3.90;62.70;;;;;;4978759;28;20030;-56
2022/01/14 03:52:17;;;;;;;27.48;13.05;;;3.90;62.70;;;;;;4975830;28;20047;-55
2022/01/14 03:54:44;;;;;;;32.22;14.25;;;3.90;62.80;;;;;;4980549;28;20030;-58
2022/01/14 03:57:10;;;;;;;30.10;13.93;;;3.80;62.70;;;;;;4974121;28;20415;-57
2022/01/14 06:54:54;;;;;;;21.27;10.80;;;3.30;62.40;;;;;;5140044;23;20398;-58
2022/01/14 06:57:22;;;;;;;20.65;10.98;;;3.30;62.50;;;;;;4998864;28;20041;-59
2022/01/14 06:59:48;;;;;;;19.92;10.18;;;3.30;62.50;;;;;;4999518;28;20033;-58
2022/01/14 07:02:14;;;;;;;19.98;9.75;;;3.30;62.50;;;;;;4995351;28;20037;-59
2022/01/14 07:04:40;;;;;;;19.70;9.85;;;3.30;62.50;;;;;;5001344;28;20037;-56
2022/01/14 07:07:06;;;;;;;19.42;9.65;;;3.30;62.50;;;;;;5001369;28;20025;-59
2022/01/14 07:09:35;;;;;;;15.90;9.13;;;3.30;62.60;;;;;;4999754;28;20364;-55
2022/01/14 07:12:02;;;;;;;17.58;9.70;;;3.30;62.60;;;;;;5000832;28;20026;-57
2022/01/14 07:14:29;;;;;;;17.52;9.57;;;3.30;62.50;;;;;;5000375;28;20045;-55
2022/01/14 07:16:56;;;;;;;20.17;9.85;;;3.30;62.40;;;;;;5005853;28;20040;-56
2022/01/14 07:19:23;;;;;;;18.83;9.65;;;3.30;62.40;;;;;;5019764;28;20029;-59
2022/01/14 07:21:50;;;;;;;20.85;10.00;;;3.30;62.40;;;;;;5019192;28;20481;-57
2022/01/14 07:24:16;;;;;;;17.73;9.70;;;3.20;62.30;;;;;;5019977;28;20485;-59
2022/01/14 07:26:43;;;;;;;16.88;9.45;;;3.20;62.30;;;;;;5018977;28;20493;-57
2022/01/14 07:29:09;;;;;;;18.02;8.95;;;3.20;62.30;;;;;;5016706;28;20052;-58
2022/01/14 07:31:35;;;;;;;16.02;9.02;;;3.30;62.40;;;;;;5019481;28;20036;-57
2022/01/14 07:34:02;;;;;;;18.52;8.98;;;3.20;62.30;;;;;;5019631;28;20041;-59
2022/01/14 07:36:28;;;;;;;17.83;9.77;;;3.20;62.40;;;;;;5017997;28;20036;-59
2022/01/14 07:38:54;;;;;;;16.50;9.38;;;3.20;62.40;;;;;;5016545;28;20352;-57
2022/01/14 07:41:21;;;;;;;18.52;8.57;;;3.20;62.40;;;;;;5033007;28;20041;-56
2022/01/14 07:43:49;;;;;;;18.83;9.80;;;3.20;62.40;;;;;;5020503;28;20045;-58
2022/01/14 07:46:15;;;;;;;17.83;9.65;;;3.20;62.40;;;;;;5015906;28;20041;-57
2022/01/14 07:48:42;;;;;;;20.45;10.23;;;3.20;62.40;;;;;;5016921;28;20379;-58
2022/01/14 07:51:09;;;;;;;16.00;9.02;;;3.20;62.40;;;;;;5017220;28;20037;-58
2022/01/14 07:53:36;;;;;;;15.75;9.27;;;3.20;62.40;;;;;;5019459;28;20053;-57
2022/01/14 07:56:06;;;;;;;15.57;9.13;;;3.20;62.50;;;;;;5018554;28;20033;-59
2022/01/14 07:58:33;;;;;;;18.65;9.38;;;3.20;62.50;;;;;;5015717;28;20029;-57
2022/01/14 08:00:59;;;;;;;17.60;9.38;;;3.20;62.60;;;;;;5018389;28;20056;-59
2022/01/14 08:03:26;;;;;;;16.52;8.70;;;3.20;62.60;;;;;;5018247;28;20060;-58
2022/01/14 08:05:54;;;;;;;21.17;10.40;;;3.20;62.70;;;;;;5020366;28;20084;-59
2022/01/14 08:08:20;;;;;;;17.70;9.90;;;3.30;62.80;;;;;;5019707;28;20487;-57
2022/01/14 08:10:46;;;;;;;20.67;10.25;;;3.30;62.80;;;;;;5018726;28;20029;-58
2022/01/14 08:13:12;;;;;;;20.67;10.57;;;3.30;62.80;;;;;;5031011;28;20037;-58
2022/01/14 08:15:38;;;;;;;18.52;9.95;;;3.30;62.80;;;;;;5020209;28;20599;-59
2022/01/14 08:18:06;;;;;;;19.55;10.32;;;3.30;62.80;;;;;;5015121;28;20041;-58
2022/01/14 08:20:33;;;;;;;19.85;11.23;;;3.30;62.80;;;;;;5019578;28;21106;-58
2022/01/14 08:23:00;;;;;;;18.67;10.45;;;3.40;62.80;;;;;;5019684;28;20052;-58
2022/01/14 08:25:27;;;;;;;18.65;10.85;;;3.40;62.80;;;;;;5019357;28;20042;-57
2022/01/14 08:27:54;;;;;;;20.55;10.75;;;3.40;62.80;;;;;;5017795;28;20025;-59
2022/01/14 08:30:21;;;;;;;19.05;10.18;;;3.40;62.90;;;;;;5020196;28;20029;-55
2022/01/14 08:32:47;;;;;;;19.08;10.35;;;3.40;62.80;;;;;;5017249;28;20036;-58
2022/01/14 08:35:13;;;;;;;20.13;10.60;;;3.50;63.00;;;;;;5019981;28;20041;-57
2022/01/14 08:37:39;;;;;;;21.25;10.25;;;3.50;63.00;;;;;;4990353;28;20469;-59
2022/01/14 08:40:07;;;;;;;20.73;11.02;;;3.50;62.90;;;;;;5017704;28;20034;-59
2022/01/14 08:42:34;;;;;;;17.20;10.10;;;3.50;62.90;;;;;;5018446;28;20037;-59
2022/01/14 08:45:00;;;;;;;16.42;9.85;;;3.50;62.90;;;;;;5019283;28;20041;-57
2022/01/14 08:47:26;;;;;;;17.20;9.60;;;3.50;62.90;;;;;;5012928;28;20053;-57
2022/01/14 08:49:52;;;;;;;21.08;9.35;;;3.60;63.00;;;;;;5016225;28;20046;-55
2022/01/14 08:52:18;;;;;;;16.67;8.93;;;3.60;63.00;;;;;;5016060;28;20036;-57
2022/01/14 08:54:45;;;;;;;18.25;9.75;;;3.60;63.00;;;;;;5017343;28;20041;-57
2022/01/14 08:57:11;;;;;;;18.35;9.60;;;3.70;63.20;;;;;;5012515;28;20036;-58
2022/01/14 08:59:38;;;;;;;14.27;8.50;;;3.70;63.20;;;;;;5032315;28;20045;-56
2022/01/14 09:02:04;;;;;;;14.90;8.48;;;3.70;63.10;;;;;;5013813;28;20038;-59
2022/01/14 09:04:30;;;;;;;15.50;8.80;;;3.70;63.10;;;;;;5015830;28;20037;-58
2022/01/14 09:06:57;;;;;;;20.13;9.30;;;3.80;63.10;;;;;;5015317;28;20037;-56
2022/01/14 09:49:47;;;;;;;16.05;9.23;;;4.40;64.00;;;;;;6110495;23;20020;-57
2022/01/14 09:52:14;;;;;;;16.55;8.82;;;4.40;64.10;;;;;;4999808;28;20053;-59
2022/01/14 09:54:42;;;;;;;17.98;9.68;;;4.40;64.00;;;;;;5002905;28;20034;-58
2022/01/14 09:57:11;;;;;;;18.20;9.68;;;4.50;64.10;;;;;;5000141;28;20463;-59
2022/01/14 09:59:37;;;;;;;15.85;9.10;;;4.50;64.10;;;;;;5001928;28;20042;-58
2022/01/14 10:02:04;;;;;;;17.55;9.52;;;4.60;64.20;;;;;;4999673;28;20037;-57
2022/01/14 10:04:30;;;;;;;18.02;9.75;;;4.60;64.20;;;;;;5002208;28;20034;-57
2022/01/14 10:06:59;;;;;;;22.27;10.13;;;4.70;64.20;;;;;;5001124;28;20617;-56
2022/01/14 10:09:44;;;;;;;15.52;8.68;;;4.70;64.20;;;;;;4998450;28;20038;-59
2022/01/14 10:12:16;;;;;;;16.30;8.52;;;4.70;64.20;;;;;;5001125;28;20038;-58
2022/01/14 10:15:08;;;;;;;15.95;8.90;;;4.80;64.20;;;;;;5002329;28;20037;-56
2022/01/14 10:17:45;;;;;;;16.75;8.13;;;4.80;64.30;;;;;;5011814;28;20040;-58
2022/01/14 10:20:14;;;;;;;14.50;8.38;;;4.90;64.40;;;;;;5018542;28;20040;-59
2022/01/14 10:22:47;;;;;;;16.35;8.60;;;4.90;64.40;;;;;;5022497;28;20029;-58
2022/01/14 10:25:16;;;;;;;16.40;9.10;;;5.00;64.50;;;;;;5021650;28;20037;-56
2022/01/14 10:27:44;;;;;;;15.63;9.10;;;5.10;64.60;;;;;;5019917;28;20032;-59
2022/01/14 10:30:16;;;;;;;16.48;9.65;;;5.10;64.70;;;;;;5021493;28;20386;-57
2022/01/14 10:32:46;;;;;;;17.63;9.70;;;5.20;64.90;;;;;;5020605;28;20040;-57
2022/01/14 10:35:15;;;;;;;16.13;9.73;;;5.30;64.90;;;;;;5020476;28;20036;-59
2022/01/14 10:37:41;;;;;;;15.77;8.82;;;5.30;65.00;;;;;;5017944;28;20341;-56
2022/01/14 10:40:19;;;;;;;16.83;9.32;;;5.40;65.20;;;;;;5020711;28;20036;-59
2022/01/14 10:42:48;;;;;;;20.80;10.65;;;5.50;65.20;;;;;;5020107;28;20029;-59
2022/01/14 10:45:22;;;;;;;28.40;12.60;;;5.60;65.10;;;;;;5021644;28;20029;-59
2022/01/14 10:48:09;;;;;;;22.48;12.13;;;5.60;65.00;;;;;;5018195;28;20404;-57
2022/01/14 10:50:41;;;;;;;22.67;12.20;;;5.70;64.80;;;;;;5021948;28;20041;-58
2022/01/14 10:53:18;;;;;;;25.85;12.85;;;5.80;64.80;;;;;;5019836;28;20490;-59
2022/01/14 10:56:03;;;;;;;25.95;13.38;;;5.90;64.80;;;;;;5020114;28;20052;-56
2022/01/14 10:58:31;;;;;;;24.27;12.25;;;5.90;64.70;;;;;;4998279;28;20051;-59
2022/01/14 11:01:02;;;;;;;19.83;9.02;;;6.00;64.60;;;;;;5018146;28;20068;-54
2022/01/14 11:03:52;;;;;;;16.52;8.77;;;6.10;64.00;;;;;;5018357;28;20026;-57
2022/01/14 11:06:31;;;;;;;21.27;10.23;;;6.10;63.30;;;;;;5020345;28;20045;-58
2022/01/14 11:09:00;;;;;;;20.13;11.18;;;6.20;63.50;;;;;;5018973;28;20497;-57
2022/01/14 11:11:34;;;;;;;21.63;11.02;;;6.30;63.60;;;;;;5019716;28;20025;-57
2022/01/14 11:14:01;;;;;;;22.05;10.63;;;6.40;63.70;;;;;;5017715;28;20493;-58
2022/01/14 11:16:27;;;;;;;18.70;10.85;;;6.40;62.60;;;;;;5019296;28;20021;-56
2022/01/14 11:18:57;;;;;;;25.50;10.85;;;6.50;62.10;;;;;;5019603;28;20022;-59
2022/01/14 11:24:14;;;;;;;22.63;11.73;;;6.60;62.00;;;;;;5021093;28;20040;-58
2022/01/14 11:26:43;;;;;;;21.35;11.15;;;6.60;61.40;;;;;;5020716;28;20439;-58
2022/01/14 11:29:16;;;;;;;24.10;12.60;;;6.70;61.20;;;;;;5019781;28;20037;-59
2022/01/14 11:31:43;;;;;;;26.20;11.13;;;6.70;61.10;;;;;;5018877;28;20033;-58
2022/01/14 11:34:47;;;;;;;21.83;11.40;;;6.80;61.00;;;;;;4994594;28;20052;-58
2022/01/14 11:37:17;;;;;;;22.70;11.15;;;6.90;60.60;;;;;;5013319;28;20033;-59
2022/01/14 11:39:58;;;;;;;22.63;12.05;;;6.90;60.40;;;;;;5018839;28;20052;-56
2022/01/14 11:43:00;;;;;;;19.83;11.38;;;7.00;60.10;;;;;;5013793;28;20363;-58
2022/01/14 11:45:47;;;;;;;22.23;11.40;;;7.00;60.20;;;;;;4995466;28;20037;-56
2022/01/14 11:48:38;;;;;;;22.17;11.80;;;7.10;60.30;;;;;;5014842;28;20048;-59
2022/01/14 11:51:15;;;;;;;32.67;13.57;;;7.10;60.00;;;;;;5020120;28;20045;-57
2022/01/14 11:53:42;;;;;;;28.48;13.15;;;7.10;60.00;;;;;;5018572;28;20056;-59
2022/01/14 11:56:31;;;;;;;27.02;13.75;;;7.20;60.20;;;;;;5014909;28;20759;-55
2022/01/14 11:59:30;;;;;;;27.38;13.05;;;7.20;60.20;;;;;;5008867;28;20045;-58
2022/01/14 12:01:57;;;;;;;25.40;13.50;;;7.30;60.10;;;;;;4983245;28;20037;-57
2022/01/14 12:04:43;;;;;;;31.38;14.57;;;7.30;60.00;;;;;;5001721;28;20052;-58
2022/01/14 12:07:10;;;;;;;24.98;12.90;;;7.30;59.80;;;;;;5019148;28;20673;-59
2022/01/14 12:10:07;;;;;;;25.88;13.52;;;7.40;59.80;;;;;;5018599;28;20021;-54
2022/01/14 12:12:34;;;;;;;27.00;13.40;;;7.40;59.70;;;;;;5001161;28;20557;-56
2022/01/14 12:15:03;;;;;;;32.33;15.13;;;7.40;59.70;;;;;;5020431;28;20030;-59
2022/01/14 12:17:39;;;;;;;36.05;15.15;;;7.40;59.70;;;;;;5014331;28;20029;-56
2022/01/14 12:20:07;;;;;;;32.92;16.92;;;7.40;59.70;;;;;;5018120;28;20052;-56
2022/01/14 12:22:33;;;;;;;39.88;18.10;;;7.50;59.70;;;;;;5020869;28;20393;-57
2022/01/14 12:24:59;;;;;;;37.53;17.90;;;7.40;59.60;;;;;;5019158;28;20038;-52
2022/01/14 12:27:28;;;;;;;37.58;16.77;;;7.40;59.60;;;;;;5018376;28;20029;-55
2022/01/14 12:30:07;;;;;;;34.47;17.38;;;7.40;59.80;;;;;;5018702;28;20500;-56
2022/01/14 12:32:36;;;;;;;39.33;17.35;;;7.40;59.70;;;;;;5018627;28;20029;-55
2022/01/14 12:35:05;;;;;;;36.83;17.30;;;7.40;59.80;;;;;;5001015;28;20622;-57
2022/01/14 12:37:40;;;;;;;36.63;18.23;;;7.40;59.90;;;;;;5017332;28;20041;-59
2022/01/14 12:40:17;;;;;;;33.75;17.35;;;7.50;60.00;;;;;;5017512;28;20056;-56
2022/01/14 12:42:52;;;;;;;38.47;17.23;;;7.50;60.10;;;;;;5018263;28;20045;-56
2022/01/14 12:45:27;;;;;;;41.17;17.77;;;7.60;60.10;;;;;;5017811;28;20406;-58
2022/01/14 12:48:05;;;;;;;37.38;17.17;;;7.60;60.10;;;;;;5016803;28;20025;-55
2022/01/14 12:50:32;;;;;;;36.15;17.10;;;7.70;60.00;;;;;;5019661;28;20049;-56
2022/01/14 12:52:58;;;;;;;40.08;18.20;;;7.80;59.80;;;;;;5019859;28;20034;-55
2022/01/14 12:55:24;;;;;;;34.25;17.05;;;7.80;59.60;;;;;;5020133;28;21075;-56
2022/01/14 12:57:57;;;;;;;43.92;20.05;;;7.70;59.40;;;;;;5015389;28;20025;-56
2022/01/14 13:00:23;;;;;;;44.03;20.63;;;7.80;59.70;;;;;;4999483;28;20042;-57
2022/01/14 13:02:50;;;;;;;42.13;19.17;;;7.80;59.70;;;;;;5018624;28;20037;-56
2022/01/14 13:05:20;;;;;;;41.28;20.50;;;7.80;59.80;;;;;;5019998;28;20044;-58
2022/01/14 13:07:46;;;;;;;39.33;20.15;;;7.70;59.70;;;;;;5016613;28;20022;-55
2022/01/14 13:10:15;;;;;;;48.17;21.23;;;7.70;59.70;;;;;;5018147;28;20041;-59
2022/01/14 13:12:44;;;;;;;42.20;21.05;;;7.70;60.20;;;;;;5015897;28;20629;-55
2022/01/14 13:15:14;;;;;;;47.75;21.13;;;7.70;60.00;;;;;;5019699;28;20029;-58
2022/01/14 13:17:50;;;;;;;49.75;22.98;;;7.70;60.20;;;;;;5015596;28;20018;-56
2022/01/14 13:20:18;;;;;;;49.25;23.08;;;7.70;60.60;;;;;;5020101;28;20042;-56
2022/01/14 13:22:46;;;;;;;54.33;24.73;;;7.70;61.30;;;;;;5023038;28;20496;-58
2022/01/14 13:25:18;;;;;;;56.28;27.40;;;7.60;61.70;;;;;;5023399;28;20037;-57
2022/01/14 13:27:48;;;;;;;53.70;26.05;;;7.60;62.20;;;;;;5022203;28;20441;-56
2022/01/14 13:30:23;;;;;;;54.78;26.85;;;7.60;62.80;;;;;;5023356;28;20036;-58
2022/01/14 13:32:54;;;;;;;54.25;27.80;;;7.50;63.30;;;;;;5022103;28;20466;-56
2022/01/14 13:35:26;;;;;;;66.75;28.92;;;7.50;63.70;;;;;;5023305;28;20041;-58
2022/01/14 13:38:14;;;;;;;63.50;29.27;;;7.50;64.80;;;;;;5019435;28;20036;-58
2022/01/14 13:40:52;;;;;;;55.22;25.35;;;7.50;64.50;;;;;;5019625;28;20061;-57
2022/01/14 13:43:33;;;;;;;59.35;26.98;;;7.50;64.50;;;;;;5022009;28;20049;-56
2022/01/14 13:46:10;;;;;;;70.82;27.55;;;7.50;64.60;;;;;;5021310;28;20029;-58
2022/01/14 13:48:42;;;;;;;66.90;28.60;;;7.50;64.80;;;;;;5002266;28;20513;-58
2022/01/14 13:51:13;;;;;;;71.88;29.98;;;7.40;65.00;;;;;;5022181;28;20049;-58
2022/01/14 13:53:44;;;;;;;62.05;25.80;;;7.40;65.20;;;;;;5022304;28;20049;-56
2022/01/14 13:56:15;;;;;;;67.20;27.83;;;7.40;65.40;;;;;;5020879;28;20033;-57
2022/01/14 13:58:47;;;;;;;50.67;18.80;;;7.30;65.60;;;;;;5019479;28;20037;-57
2022/01/14 14:01:13;;;;;;;57.13;21.55;;;7.20;65.60;;;;;;5019049;28;20034;-56
2022/01/14 14:04:00;;;;;;;56.83;22.90;;;7.20;65.60;;;;;;5021973;28;20728;-58
2022/01/14 14:06:33;;;;;;;62.03;24.52;;;7.20;66.10;;;;;;5021516;28;20033;-57
2022/01/14 14:18:05;;;;;;;61.42;23.42;;;7.10;66.30;;;;;;5019124;28;20505;-55
2022/01/14 14:20:31;;;;;;;64.53;22.88;;;7.10;66.20;;;;;;5000938;28;20045;-57
2022/01/14 14:23:17;;;;;;;69.07;24.95;;;7.10;66.40;;;;;;5022360;28;20029;-56
2022/01/14 14:25:43;;;;;;;60.85;23.45;;;7.00;66.60;;;;;;5022027;28;20033;-56
2022/01/14 14:28:11;;;;;;;67.75;25.80;;;7.00;66.60;;;;;;5019399;28;20022;-57
2022/01/14 14:30:42;;;;;;;65.13;25.65;;;7.00;66.60;;;;;;5020152;28;20410;-54
2022/01/14 14:33:09;;;;;;;62.55;23.75;;;7.00;66.80;;;;;;5019860;28;20390;-56
2022/01/14 14:35:37;;;;;;;54.63;22.27;;;7.00;66.80;;;;;;5021694;28;20068;-57
2022/01/14 14:38:07;;;;;;;60.28;22.65;;;7.00;66.90;;;;;;5017048;28;20492;-58
2022/01/14 14:40:35;;;;;;;57.55;23.02;;;7.00;67.00;;;;;;5016079;28;20042;-58
2022/01/14 14:43:05;;;;;;;59.03;25.65;;;7.00;67.10;;;;;;5018316;28;20476;-57
2022/01/14 14:45:33;;;;;;;62.72;25.40;;;7.00;67.20;;;;;;5017584;28;20056;-57
2022/01/14 14:48:00;;;;;;;60.80;25.25;;;7.00;67.20;;;;;;5015551;28;20034;-56
2022/01/14 14:50:27;;;;;;;54.33;21.35;;;7.00;67.10;;;;;;5002489;28;20040;-56
2022/01/14 14:52:55;;;;;;;53.40;20.70;;;7.00;66.90;;;;;;5021415;28;20041;-55
2022/01/14 14:55:22;;;;;;;57.28;20.55;;;7.00;67.00;;;;;;5021595;28;20033;-56
2022/01/14 14:57:50;;;;;;;52.92;21.38;;;7.00;67.00;;;;;;5017251;28;20026;-57
2022/01/14 15:00:20;;;;;;;47.83;20.05;;;7.00;66.90;;;;;;5019411;28;20033;-58
2022/01/14 15:02:48;;;;;;;43.00;19.08;;;7.00;66.90;;;;;;5016129;28;20056;-57
2022/01/14 15:05:14;;;;;;;47.30;19.48;;;7.00;66.80;;;;;;5014006;28;20036;-58
2022/01/14 15:07:41;;;;;;;47.42;19.98;;;7.00;66.70;;;;;;5014473;28;20030;-56
2022/01/14 15:10:09;;;;;;;40.30;18.08;;;7.00;66.70;;;;;;5016713;28;20398;-57
2022/01/14 15:12:35;;;;;;;37.05;16.17;;;7.00;66.50;;;;;;5015101;28;20029;-58
2022/01/14 15:15:07;;;;;;;37.08;15.65;;;7.00;66.20;;;;;;5012106;28;20025;-58
2022/01/14 15:20:25;;;;;;;40.60;17.75;;;7.00;66.30;;;;;;5018151;28;20037;-57
2022/01/14 15:22:53;;;;;;;46.15;18.17;;;7.00;66.30;;;;;;5016913;28;20029;-56
2022/01/14 15:25:20;;;;;;;48.30;17.95;;;7.00;66.20;;;;;;5020526;28;21010;-56
2022/01/14 15:27:47;;;;;;;40.40;17.50;;;7.00;66.20;;;;;;5017329;28;20026;-55
2022/01/14 15:30:15;;;;;;;40.38;17.30;;;7.00;66.20;;;;;;5020182;28;20423;-57
2022/01/14 15:32:42;;;;;;;41.95;17.33;;;7.00;66.20;;;;;;5018110;28;20048;-54
2022/01/14 15:35:09;;;;;;;43.75;18.13;;;7.00;66.20;;;;;;5020332;28;20025;-56
2022/01/14 15:37:35;;;;;;;40.67;16.60;;;7.00;66.20;;;;;;5016745;28;20077;-58
2022/01/14 15:40:04;;;;;;;38.15;16.77;;;7.00;66.20;;;;;;5019457;28;20025;-57
2022/01/14 15:42:32;;;;;;;42.10;17.73;;;7.00;66.20;;;;;;5018236;28;20493;-55
2022/01/14 15:45:04;;;;;;;37.42;16.42;;;7.10;66.10;;;;;;5019849;28;20033;-57
2022/01/14 15:47:32;;;;;;;39.35;17.30;;;7.10;65.90;;;;;;5018499;28;20029;-56
2022/01/14 15:50:00;;;;;;;40.70;18.88;;;7.10;65.90;;;;;;5016103;28;20064;-58
2022/01/14 15:52:26;;;;;;;41.97;19.50;;;7.10;65.80;;;;;;5017776;28;20072;-57
2022/01/14 15:54:53;;;;;;;44.17;18.83;;;7.10;65.70;;;;;;5018508;28;20025;-58
2022/01/14 15:57:19;;;;;;;43.33;18.52;;;7.10;65.50;;;;;;5018320;28;20390;-56
2022/01/14 15:59:45;;;;;;;43.03;16.85;;;7.10;65.50;;;;;;5018296;28;20754;-54
2022/01/14 16:02:13;;;;;;;37.20;15.70;;;7.10;65.30;;;;;;5017800;28;20025;-57
2022/01/14 16:04:40;;;;;;;45.50;19.13;;;7.20;65.40;;;;;;5017388;28;20394;-56
2022/01/14 16:07:07;;;;;;;43.78;19.33;;;7.10;65.40;;;;;;5016323;28;21071;-58
2022/01/14 16:09:34;;;;;;;41.95;19.83;;;7.20;65.40;;;;;;5017677;28;20561;-58
2022/01/14 16:12:00;;;;;;;44.05;18.38;;;7.20;65.40;;;;;;5015589;28;20555;-58
2022/01/14 16:14:32;;;;;;;42.85;19.85;;;7.20;65.40;;;;;;5018710;28;20021;-58
2022/01/14 16:17:00;;;;;;;42.08;16.67;;;7.20;65.40;;;;;;5016397;28;20637;-57
2022/01/14 16:19:26;;;;;;;44.55;19.27;;;7.20;65.20;;;;;;5018189;28;20029;-56
2022/01/14 16:21:53;;;;;;;48.28;20.02;;;7.20;65.00;;;;;;5018758;28;20037;-56
2022/01/14 16:24:19;;;;;;;41.65;18.55;;;7.20;65.00;;;;;;5015613;28;20032;-56
2022/01/14 16:26:46;;;;;;;46.25;19.27;;;7.10;64.90;;;;;;5011570;28;20060;-58
2022/01/14 16:29:12;;;;;;;39.85;18.60;;;7.20;65.00;;;;;;5013486;28;20478;-58
2022/01/14 16:31:38;;;;;;;40.22;18.23;;;7.10;65.10;;;;;;5011633;28;20944;-56
2022/01/14 16:34:06;;;;;;;44.20;20.23;;;7.10;65.10;;;;;;5017708;28;20030;-58
2022/01/14 16:36:33;;;;;;;45.67;20.38;;;7.10;65.20;;;;;;5016443;28;20101;-56
2022/01/14 16:39:00;;;;;;;50.35;21.55;;;7.10;65.20;;;;;;5015344;28;20040;-56
2022/01/14 16:41:26;;;;;;;50.25;21.83;;;7.10;65.20;;;;;;5014429;28;20037;-56
2022/01/14 16:43:56;;;;;;;51.00;21.08;;;7.10;65.20;;;;;;5014096;28;20037;-57
2022/01/14 16:46:23;;;;;;;50.60;21.35;;;7.10;65.20;;;;;;5013668;28;20052;-57
2022/01/14 16:48:49;;;;;;;51.67;22.25;;;7.10;65.10;;;;;;5009415;28;20022;-58
2022/01/14 16:51:16;;;;;;;51.83;21.98;;;7.10;65.10;;;;;;5016931;28;20060;-58
2022/01/14 16:53:42;;;;;;;55.92;23.10;;;7.00;65.10;;;;;;5019749;28;20057;-56
2022/01/14 16:56:08;;;;;;;52.10;22.25;;;7.00;65.20;;;;;;5017371;28;20037;-58
2022/01/14 16:58:35;;;;;;;48.65;21.38;;;7.00;65.30;;;;;;5002164;28;20044;-58
2022/01/14 17:01:04;;;;;;;49.17;21.20;;;7.00;65.30;;;;;;5019015;28;20025;-55
2022/01/14 17:03:31;;;;;;;48.80;21.27;;;6.90;65.30;;;;;;5022252;28;20494;-56
2022/01/14 17:05:57;;;;;;;61.20;22.42;;;7.00;65.40;;;;;;5016785;28;20038;-57